createdAt,value
2018-12-27T00:00:55.131Z,5.13
2018-12-27T00:03:27.195Z,5.09
2018-12-27T00:05:58.882Z,5.06
2018-12-27T00:08:30.805Z,5.03
2018-12-27T00:11:02.903Z,5.02
2018-12-27T00:13:34.590Z,5.01
2018-12-27T00:16:06.228Z,5.02
2018-12-27T00:18:37.923Z,5.08
2018-12-27T00:21:10.333Z,5.13
2018-12-27T00:23:42.271Z,5.13
2018-12-27T00:26:14.762Z,5.09
2018-12-27T00:28:46.753Z,5.08
2018-12-27T00:31:18.782Z,5.04
2018-12-27T00:33:50.788Z,5.03
2018-12-27T00:36:22.907Z,5.01
2018-12-27T00:38:54.932Z,4.99
2018-12-27T00:41:27.020Z,4.98
2018-12-27T00:44:02.894Z,4.96
2018-12-27T00:46:34.887Z,4.91
2018-12-27T00:49:07.233Z,4.88
2018-12-27T00:51:39.325Z,4.87
2018-12-27T00:54:11.340Z,4.87
2018-12-27T00:56:44.276Z,4.81
2018-12-27T00:59:17.805Z,4.69
2018-12-27T01:01:50.617Z,4.63
2018-12-27T01:04:22.987Z,4.59
2018-12-27T01:06:55.067Z,4.58
2018-12-27T01:09:27.037Z,4.56
2018-12-27T01:11:59.078Z,4.52
2018-12-27T01:14:31.055Z,4.50
2018-12-27T01:17:04.187Z,4.52
2018-12-27T01:19:36.180Z,4.56
2018-12-27T01:22:08.599Z,4.60
2018-12-27T01:24:40.555Z,4.62
2018-12-27T01:27:12.590Z,4.61
2018-12-27T01:29:46.005Z,4.60
2018-12-27T01:32:18.884Z,4.54
2018-12-27T01:34:50.937Z,4.52
2018-12-27T01:37:22.897Z,4.48
2018-12-27T01:39:54.861Z,4.45
2018-12-27T01:42:26.815Z,4.46
2018-12-27T01:44:58.986Z,4.46
2018-12-27T01:47:31.203Z,4.45
2018-12-27T01:50:03.555Z,4.47
2018-12-27T01:52:35.569Z,4.52
2018-12-27T01:55:07.819Z,4.52
2018-12-27T01:57:40.320Z,4.51
2018-12-27T02:00:12.443Z,4.45
2018-12-27T02:02:44.519Z,4.38
2018-12-27T02:05:18.379Z,4.35
2018-12-27T02:07:50.329Z,4.34
2018-12-27T02:10:22.537Z,4.35
2018-12-27T02:12:54.500Z,4.34
2018-12-27T02:15:26.810Z,4.31
2018-12-27T02:17:58.816Z,4.26
2018-12-27T02:20:31.705Z,4.26
2018-12-27T02:23:03.716Z,4.23
2018-12-27T02:25:35.633Z,4.20
2018-12-27T02:28:07.614Z,4.16
2018-12-27T02:30:39.634Z,4.14
2018-12-27T02:33:11.705Z,4.13
2018-12-27T02:35:44.425Z,4.11
2018-12-27T02:38:16.355Z,4.10
2018-12-27T02:40:48.312Z,4.07
2018-12-27T02:43:22.350Z,4.07
2018-12-27T02:45:54.320Z,4.08
2018-12-27T02:48:26.388Z,4.08
2018-12-27T02:50:58.982Z,4.07
2018-12-27T02:53:31.013Z,4.08
2018-12-27T02:56:03.501Z,4.08
2018-12-27T02:58:35.677Z,4.06
2018-12-27T03:01:07.748Z,4.04
2018-12-27T03:03:44.041Z,4.05
2018-12-27T03:06:13.631Z,4.02
2018-12-27T03:08:46.099Z,4.01
2018-12-27T03:11:19.941Z,4.02
2018-12-27T03:13:51.946Z,4.00
2018-12-27T03:16:23.958Z,4.00
2018-12-27T03:18:55.925Z,3.98
2018-12-27T03:21:27.895Z,3.97
2018-12-27T03:24:00.491Z,3.99
2018-12-27T03:26:32.482Z,4.00
2018-12-27T03:29:04.431Z,4.01
2018-12-27T03:31:36.460Z,3.99
2018-12-27T03:34:08.463Z,4.01
2018-12-27T03:36:40.409Z,3.99
2018-12-27T03:39:12.998Z,3.98
2018-12-27T03:41:44.976Z,3.96
2018-12-27T03:44:18.245Z,3.96
2018-12-27T03:46:50.160Z,3.98
2018-12-27T03:49:22.128Z,4.02
2018-12-27T03:51:54.083Z,4.05
2018-12-27T03:54:26.760Z,4.08
2018-12-27T03:56:59.921Z,4.10
2018-12-27T03:59:32.059Z,4.09
2018-12-27T04:02:04.245Z,4.08
2018-12-27T04:04:40.953Z,4.04
2018-12-27T04:07:12.933Z,4.00
2018-12-27T04:09:47.622Z,3.96
2018-12-27T04:12:19.865Z,3.96
2018-12-27T04:14:51.851Z,3.98
2018-12-27T04:17:23.533Z,4.02
2018-12-27T04:19:55.184Z,4.07
2018-12-27T04:22:26.830Z,4.06
2018-12-27T04:24:58.448Z,4.03
2018-12-27T04:27:30.786Z,4.03
2018-12-27T04:30:02.440Z,4.06
2018-12-27T04:32:34.660Z,4.08
2018-12-27T04:35:06.455Z,4.14
2018-12-27T04:37:38.346Z,4.18
2018-12-27T04:40:10.038Z,4.22
2018-12-27T04:42:43.994Z,4.25
2018-12-27T04:45:15.650Z,4.28
2018-12-27T04:47:47.376Z,4.33
2018-12-27T04:50:19.100Z,4.33
2018-12-27T04:52:50.742Z,4.32
2018-12-27T04:55:22.369Z,4.31
2018-12-27T04:57:55.332Z,4.31
2018-12-27T05:00:27.017Z,4.33
2018-12-27T05:02:58.646Z,4.34
2018-12-27T05:05:30.244Z,4.34
2018-12-27T05:08:02.075Z,4.34
2018-12-27T05:10:33.694Z,4.34
2018-12-27T05:13:07.153Z,4.35
2018-12-27T05:15:38.791Z,4.38
2018-12-27T05:18:11.898Z,4.40
2018-12-27T05:20:43.531Z,4.43
2018-12-27T05:23:15.187Z,4.41
2018-12-27T05:25:46.837Z,4.39
2018-12-27T05:28:19.322Z,4.38
2018-12-27T05:30:50.958Z,4.35
2018-12-27T05:33:22.762Z,4.32
2018-12-27T05:35:54.412Z,4.31
2018-12-27T05:38:26.051Z,4.27
2018-12-27T05:40:57.665Z,4.28
2018-12-27T05:43:29.296Z,4.32
2018-12-27T05:46:01.750Z,4.31
2018-12-27T05:48:33.668Z,4.32
2018-12-27T05:51:05.631Z,4.31
2018-12-27T05:53:37.344Z,4.32
2018-12-27T05:56:09.870Z,4.32
2018-12-27T05:58:42.128Z,4.35
2018-12-27T06:01:15.975Z,4.37
2018-12-27T06:03:47.652Z,4.37
2018-12-27T06:06:19.648Z,4.38
2018-12-27T06:08:51.421Z,4.41
2018-12-27T06:11:23.165Z,4.44
2018-12-27T06:13:55.149Z,4.44
2018-12-27T06:16:27.402Z,4.45
2018-12-27T06:19:00.254Z,4.46
2018-12-27T06:21:31.889Z,4.48
2018-12-27T06:24:03.682Z,4.48
2018-12-27T06:26:35.325Z,4.47
2018-12-27T06:29:06.956Z,4.48
2018-12-27T06:31:39.244Z,4.48
2018-12-27T06:34:10.872Z,4.49
2018-12-27T06:36:42.539Z,4.52
2018-12-27T06:39:15.602Z,4.53
2018-12-27T06:41:47.254Z,4.57
2018-12-27T06:44:18.900Z,4.55
2018-12-27T06:46:51.329Z,4.54
2018-12-27T06:49:22.945Z,4.53
2018-12-27T06:51:54.587Z,4.53
2018-12-27T06:54:26.425Z,4.54
2018-12-27T06:56:58.219Z,4.54
2018-12-27T06:59:30.369Z,4.52
2018-12-27T07:02:02.710Z,4.49
2018-12-27T07:04:34.350Z,4.48
2018-12-27T07:07:07.647Z,4.47
2018-12-27T07:09:39.290Z,4.49
2018-12-27T07:12:11.056Z,4.49
2018-12-27T07:14:42.722Z,4.46
2018-12-27T07:17:14.366Z,4.44
2018-12-27T07:19:48.301Z,4.47
2018-12-27T07:22:20.087Z,4.48
2018-12-27T07:24:51.725Z,4.48
2018-12-27T07:27:23.704Z,4.50
2018-12-27T07:29:55.749Z,4.52
2018-12-27T07:32:27.546Z,4.55
2018-12-27T07:34:59.867Z,4.51
2018-12-27T07:37:31.807Z,4.49
2018-12-27T07:40:03.529Z,4.50
2018-12-27T07:42:35.552Z,4.50
2018-12-27T07:45:07.636Z,4.49
2018-12-27T07:47:39.759Z,4.47
2018-12-27T07:50:12.063Z,4.44
2018-12-27T07:52:43.925Z,4.43
2018-12-27T07:55:15.926Z,4.46
2018-12-27T07:57:47.589Z,4.50
2018-12-27T08:00:20.822Z,4.51
2018-12-27T08:02:53.670Z,4.52
2018-12-27T08:05:26.099Z,4.56
2018-12-27T08:07:58.047Z,4.59
2018-12-27T08:10:29.824Z,4.61
2018-12-27T08:13:01.474Z,4.65
2018-12-27T08:15:34.791Z,4.69
2018-12-27T08:18:06.421Z,4.69
2018-12-27T08:20:39.191Z,4.71
2018-12-27T08:23:10.863Z,4.67
2018-12-27T08:25:42.562Z,4.66
2018-12-27T08:28:14.201Z,4.66
2018-12-27T08:30:47.070Z,4.70
2018-12-27T08:33:18.841Z,4.71
2018-12-27T08:35:50.578Z,4.74
2018-12-27T08:38:23.172Z,4.76
2018-12-27T08:40:54.828Z,4.74
2018-12-27T08:43:26.889Z,4.75
2018-12-27T08:45:58.532Z,4.73
2018-12-27T08:48:30.259Z,4.74
2018-12-27T08:51:01.960Z,4.74
2018-12-27T08:53:33.589Z,4.73
2018-12-27T08:56:06.066Z,4.76
2018-12-27T08:58:38.136Z,4.76
2018-12-27T09:01:09.823Z,4.80
2018-12-27T09:03:41.505Z,4.81
2018-12-27T09:06:13.399Z,4.81
2018-12-27T09:08:45.046Z,4.77
2018-12-27T09:11:16.725Z,4.75
2018-12-27T09:13:49.191Z,4.73
2018-12-27T09:16:20.881Z,4.71
2018-12-27T09:18:52.523Z,4.71
2018-12-27T09:21:24.329Z,4.72
2018-12-27T09:23:56.341Z,4.73
2018-12-27T09:26:28.041Z,4.75
2018-12-27T09:29:00.482Z,4.75
2018-12-27T09:31:32.103Z,4.77
2018-12-27T09:34:03.832Z,4.78
2018-12-27T09:36:36.475Z,4.80
2018-12-27T09:39:08.782Z,4.86
2018-12-27T09:41:40.430Z,4.88
2018-12-27T09:44:12.748Z,4.90
2018-12-27T09:46:44.676Z,4.90
2018-12-27T09:49:16.450Z,4.90
2018-12-27T09:51:48.114Z,4.90
2018-12-27T09:54:20.051Z,4.86
2018-12-27T09:56:51.789Z,4.86
2018-12-27T09:59:24.561Z,4.90
2018-12-27T10:01:56.327Z,4.93
2018-12-27T10:04:28.038Z,4.95
2018-12-27T10:06:59.916Z,4.96
2018-12-27T10:09:31.588Z,4.94
2018-12-27T10:12:03.278Z,4.99
2018-12-27T10:14:34.915Z,5.01
2018-12-27T10:17:07.465Z,5.05
2018-12-27T10:19:39.167Z,5.07
2018-12-27T10:22:10.890Z,5.08
2018-12-27T10:24:42.844Z,5.12
2018-12-27T10:27:14.559Z,5.09
2018-12-27T10:29:46.252Z,5.03
2018-12-27T10:32:19.987Z,5.04
2018-12-27T10:34:51.662Z,5.05
2018-12-27T10:37:23.857Z,5.03
2018-12-27T10:39:55.760Z,5.03
2018-12-27T10:42:27.444Z,5.04
2018-12-27T10:44:59.593Z,5.07
2018-12-27T10:47:32.023Z,5.07
2018-12-27T10:50:04.179Z,5.08
2018-12-27T10:52:35.876Z,5.08
2018-12-27T10:55:08.218Z,5.06
2018-12-27T10:57:41.573Z,5.05
2018-12-27T11:00:13.867Z,5.03
2018-12-27T11:02:46.786Z,4.98
2018-12-27T11:05:19.598Z,4.96
2018-12-27T11:07:51.410Z,5.00
2018-12-27T11:10:23.092Z,5.03
2018-12-27T11:12:54.865Z,5.07
2018-12-27T11:15:27.008Z,5.15
2018-12-27T11:17:59.336Z,5.21
2018-12-27T11:20:31.141Z,5.24
2018-12-27T11:23:05.038Z,5.28
2018-12-27T11:25:36.774Z,5.31
2018-12-27T11:28:08.531Z,5.32
2018-12-27T11:30:41.750Z,5.30
2018-12-27T11:33:14.065Z,5.26
2018-12-27T11:35:45.858Z,5.16
2018-12-27T11:38:17.493Z,5.06
2018-12-27T11:40:49.264Z,5.02
2018-12-27T11:43:21.421Z,5.03
2018-12-27T11:45:53.171Z,5.08
2018-12-27T11:48:24.899Z,5.16
2018-12-27T11:50:56.982Z,5.19
2018-12-27T11:53:29.013Z,5.18
2018-12-27T11:56:02.267Z,5.15
2018-12-27T11:58:35.296Z,5.12
2018-12-27T12:01:07.183Z,5.12
2018-12-27T12:03:38.868Z,5.15
2018-12-27T12:06:11.043Z,5.18
2018-12-27T12:08:42.804Z,5.13
2018-12-27T12:11:14.708Z,5.04
2018-12-27T12:13:46.447Z,4.99
2018-12-27T12:16:18.254Z,5.00
2018-12-27T12:18:50.124Z,5.05
2018-12-27T12:21:24.677Z,5.12
2018-12-27T12:23:56.415Z,5.16
2018-12-27T12:26:28.511Z,5.22
2018-12-27T12:29:00.334Z,5.28
2018-12-27T12:31:32.259Z,5.31
2018-12-27T12:34:04.497Z,5.34
2018-12-27T12:36:37.036Z,5.32
2018-12-27T12:39:09.543Z,5.29
2018-12-27T12:41:41.314Z,5.31
2018-12-27T12:44:13.629Z,5.33
2018-12-27T12:46:45.297Z,5.37
2018-12-27T12:49:17.206Z,5.38
2018-12-27T12:51:49.669Z,5.41
2018-12-27T12:54:21.401Z,5.45
2018-12-27T12:56:53.088Z,5.49
2018-12-27T12:59:24.985Z,5.51
2018-12-27T13:01:56.727Z,5.54
2018-12-27T13:04:28.680Z,5.54
2018-12-27T13:07:01.206Z,5.49
2018-12-27T13:09:33.345Z,5.49
2018-12-27T13:12:05.128Z,5.49
2018-12-27T13:14:36.914Z,5.49
2018-12-27T13:17:08.909Z,5.46
2018-12-27T13:19:40.660Z,5.45
2018-12-27T13:22:13.092Z,5.47
2018-12-27T13:24:44.769Z,5.49
2018-12-27T13:27:16.442Z,5.52
2018-12-27T13:29:48.115Z,5.53
2018-12-27T13:32:20.127Z,5.53
2018-12-27T13:34:52.363Z,5.54
2018-12-27T13:37:24.474Z,5.55
2018-12-27T13:39:57.062Z,5.59
2018-12-27T13:42:28.972Z,5.62
2018-12-27T13:45:01.878Z,5.64
2018-12-27T13:47:33.697Z,5.67
2018-12-27T13:50:06.900Z,5.69
2018-12-27T13:52:39.260Z,5.68
2018-12-27T13:55:11.440Z,5.67
2018-12-27T13:57:43.078Z,5.68
2018-12-27T14:00:15.427Z,5.71
2018-12-27T14:02:48.912Z,5.74
2018-12-27T14:05:22.805Z,5.77
2018-12-27T14:07:56.257Z,5.78
2018-12-27T14:10:28.572Z,5.74
2018-12-27T14:13:00.275Z,5.74
2018-12-27T14:15:32.538Z,5.76
2018-12-27T14:18:04.288Z,5.81
2018-12-27T14:20:36.070Z,5.84
2018-12-27T14:23:07.806Z,5.87
2018-12-27T14:25:39.647Z,5.85
2018-12-27T14:28:11.429Z,5.82
2018-12-27T14:30:44.509Z,5.81
2018-12-27T14:33:16.231Z,5.80
2018-12-27T14:35:48.379Z,5.79
2018-12-27T14:38:20.162Z,5.78
2018-12-27T14:40:51.824Z,5.77
2018-12-27T14:43:23.663Z,5.73
2018-12-27T14:45:55.313Z,5.70
2018-12-27T14:48:27.699Z,5.69
2018-12-27T14:50:59.398Z,5.69
2018-12-27T14:53:32.191Z,5.68
2018-12-27T14:56:03.903Z,5.65
2018-12-27T14:58:35.824Z,5.63
2018-12-27T15:01:08.597Z,5.59
2018-12-27T15:03:43.203Z,5.57
2018-12-27T15:06:19.409Z,5.53
2018-12-27T15:08:52.574Z,5.47
2018-12-27T15:11:25.335Z,5.39
2018-12-27T15:13:57.268Z,5.33
2018-12-27T15:16:28.930Z,5.30
2018-12-27T15:19:01.019Z,5.25
2018-12-27T15:21:32.692Z,5.22
2018-12-27T15:24:04.518Z,5.21
2018-12-27T15:26:36.299Z,5.21
2018-12-27T15:29:08.130Z,5.24
2018-12-27T15:31:39.843Z,5.27
2018-12-27T15:34:13.114Z,5.29
2018-12-27T15:36:44.850Z,5.33
2018-12-27T15:39:16.587Z,5.33
2018-12-27T15:41:48.270Z,5.36
2018-12-27T15:44:20.891Z,5.35
2018-12-27T15:46:52.582Z,5.35
2018-12-27T15:49:25.177Z,5.35
2018-12-27T15:51:58.673Z,5.32
2018-12-27T15:54:30.519Z,5.31
2018-12-27T15:57:02.198Z,5.29
2018-12-27T15:59:34.091Z,5.30
2018-12-27T16:02:06.195Z,5.31
2018-12-27T16:04:37.891Z,5.34
2018-12-27T16:07:09.713Z,5.35
2018-12-27T16:09:41.606Z,5.38
2018-12-27T16:12:14.862Z,5.38
2018-12-27T16:14:46.599Z,5.39
2018-12-27T16:17:18.393Z,5.39
2018-12-27T16:19:50.108Z,5.43
2018-12-27T16:22:22.445Z,5.45
2018-12-27T16:24:54.434Z,5.46
2018-12-27T16:27:27.357Z,5.44
2018-12-27T16:30:17.177Z,5.43
2018-12-27T16:33:06.809Z,5.37
2018-12-27T16:35:56.230Z,5.36
2018-12-27T16:38:46.797Z,5.34
2018-12-27T16:41:20.580Z,5.34
2018-12-27T16:43:52.511Z,5.35
2018-12-27T16:46:24.213Z,5.34
2018-12-27T16:48:57.770Z,5.35
2018-12-27T16:51:29.555Z,5.35
2018-12-27T16:54:01.321Z,5.35
2018-12-27T16:56:34.645Z,5.35
2018-12-27T16:59:09.949Z,5.37
2018-12-27T17:01:43.219Z,5.37
2018-12-27T17:04:16.514Z,5.37
2018-12-27T17:06:49.784Z,5.38
2018-12-27T17:09:23.516Z,5.38
2018-12-27T17:11:56.990Z,5.34
2018-12-27T17:14:30.415Z,5.31
2018-12-27T17:17:06.038Z,5.29
2018-12-27T17:19:39.347Z,5.28
2018-12-27T17:22:12.584Z,5.28
2018-12-27T17:24:45.934Z,5.25
2018-12-27T17:27:19.714Z,5.26
2018-12-27T17:30:09.247Z,5.23
2018-12-27T17:32:58.918Z,5.22
2018-12-27T17:35:48.262Z,5.19
2018-12-27T17:38:37.680Z,5.12
2018-12-27T17:41:26.903Z,5.11
2018-12-27T17:44:16.240Z,5.08
2018-12-27T17:47:05.723Z,5.09
2018-12-27T17:49:55.697Z,5.07
2018-12-27T17:52:44.843Z,5.05
2018-12-27T17:55:34.846Z,5.04
2018-12-27T17:58:24.762Z,5.04
2018-12-27T18:01:14.422Z,5.00
2018-12-27T18:04:03.548Z,5.01
2018-12-27T18:06:53.000Z,5.05
2018-12-27T18:09:42.226Z,5.08
2018-12-27T18:12:31.699Z,5.08
2018-12-27T18:15:21.114Z,5.07
2018-12-27T18:18:10.710Z,5.03
2018-12-27T18:20:59.833Z,4.94
2018-12-27T18:23:49.262Z,4.89
2018-12-27T18:26:38.532Z,4.87
2018-12-27T18:29:28.384Z,4.89
2018-12-27T18:32:18.023Z,4.89
2018-12-27T18:35:08.362Z,4.86
2018-12-27T18:37:58.125Z,4.86
2018-12-27T18:40:47.822Z,4.85
2018-12-27T18:43:37.349Z,4.87
2018-12-27T18:46:26.825Z,4.88
2018-12-27T18:49:20.639Z,4.90
2018-12-27T18:52:07.807Z,4.91
2018-12-27T18:54:57.831Z,4.91
2018-12-27T18:57:47.786Z,4.91
2018-12-27T19:00:37.676Z,4.93
2018-12-27T19:03:27.527Z,4.94
2018-12-27T19:06:17.608Z,4.96
2018-12-27T19:09:08.953Z,4.97
2018-12-27T19:12:52.536Z,4.96
2018-12-27T19:15:50.975Z,4.95
2018-12-27T19:18:48.052Z,4.93
2018-12-27T19:21:56.423Z,4.92
2018-12-27T19:24:28.352Z,4.94
2018-12-27T19:27:01.106Z,4.97
2018-12-27T19:29:33.004Z,4.98
2018-12-27T19:32:04.795Z,5.00
2018-12-27T19:34:36.656Z,5.03
2018-12-27T19:37:08.649Z,5.04
2018-12-27T19:39:40.610Z,5.08
2018-12-27T19:42:12.780Z,5.11
2018-12-27T19:44:44.482Z,5.08
2018-12-27T19:47:16.370Z,5.07
2018-12-27T19:49:51.826Z,5.11
2018-12-27T19:52:25.563Z,5.13
2018-12-27T19:54:57.651Z,5.14
2018-12-27T19:57:30.502Z,5.15
2018-12-27T20:00:04.043Z,5.18
2018-12-27T20:02:38.713Z,5.22
2018-12-27T20:05:15.187Z,5.20
2018-12-27T20:07:47.877Z,5.22
2018-12-27T20:10:19.711Z,5.22
2018-12-27T20:12:52.248Z,5.22
2018-12-27T20:15:24.385Z,5.22
2018-12-27T20:17:59.365Z,5.24
2018-12-27T20:20:32.980Z,5.21
2018-12-27T20:23:06.807Z,5.20
2018-12-27T20:25:43.765Z,5.16
2018-12-27T20:28:16.148Z,5.13
2018-12-27T20:30:48.184Z,5.13
2018-12-27T20:33:23.365Z,5.13
2018-12-27T20:35:56.060Z,5.15
2018-12-27T20:38:28.440Z,5.16
2018-12-27T20:41:02.704Z,5.17
2018-12-27T20:43:36.212Z,5.15
2018-12-27T20:46:10.297Z,5.13
2018-12-27T20:48:43.672Z,5.07
2018-12-27T20:51:18.282Z,5.14
2018-12-27T20:54:00.834Z,5.17
2018-12-27T20:56:32.921Z,5.18
2018-12-27T20:59:05.352Z,5.19
2018-12-27T21:01:40.029Z,5.20
2018-12-27T21:04:11.892Z,5.17
2018-12-27T21:06:44.399Z,5.14
2018-12-27T21:09:18.197Z,5.12
2018-12-27T21:11:50.000Z,5.11
2018-12-27T21:14:23.015Z,5.12
2018-12-27T21:16:56.777Z,5.14
2018-12-27T21:19:36.774Z,5.13
2018-12-27T21:22:10.800Z,5.14
2018-12-27T21:24:46.283Z,5.15
2018-12-27T21:27:18.276Z,5.18
2018-12-27T21:29:50.138Z,5.19
2018-12-27T21:32:22.548Z,5.18
2018-12-27T21:34:54.492Z,5.15
2018-12-27T21:37:26.393Z,5.15
2018-12-27T21:39:58.795Z,5.14
2018-12-27T21:42:31.545Z,5.15
2018-12-27T21:45:04.584Z,5.18
2018-12-27T21:47:38.089Z,5.19
2018-12-27T21:50:10.260Z,5.20
2018-12-27T21:52:42.112Z,5.21
2018-12-27T21:55:15.215Z,5.20
2018-12-27T21:57:46.955Z,5.21
2018-12-27T22:00:19.709Z,5.20
2018-12-27T22:02:51.437Z,5.20
2018-12-27T22:05:23.337Z,5.22
2018-12-27T22:07:55.791Z,5.23
2018-12-27T22:10:31.415Z,5.24
2018-12-27T22:13:04.537Z,5.27
2018-12-27T22:15:38.235Z,5.27
2018-12-27T22:18:11.685Z,5.27
2018-12-27T22:20:43.452Z,5.26
2018-12-27T22:23:19.248Z,5.27
2018-12-27T22:25:52.963Z,5.28
2018-12-27T22:28:26.232Z,5.29
2018-12-27T22:30:58.119Z,5.30
2018-12-27T22:33:31.734Z,5.33
2018-12-27T22:36:03.504Z,5.32
2018-12-27T22:38:35.897Z,5.33
2018-12-27T22:41:07.630Z,5.31
2018-12-27T22:43:40.194Z,5.30
2018-12-27T22:46:13.067Z,5.26
2018-12-27T22:48:48.339Z,5.25
2018-12-27T22:51:22.505Z,5.25
2018-12-27T22:53:57.804Z,5.25
2018-12-27T22:56:29.987Z,5.24
2018-12-27T22:59:08.413Z,5.25
2018-12-27T23:01:44.628Z,5.24
2018-12-27T23:04:19.867Z,5.21
2018-12-27T23:06:54.678Z,5.26
2018-12-27T23:09:28.994Z,5.25
2018-12-27T23:12:00.862Z,5.25
2018-12-27T23:14:36.497Z,5.22
2018-12-27T23:17:10.417Z,5.18
2018-12-27T23:19:42.363Z,5.19
2018-12-27T23:22:14.424Z,5.20
2018-12-27T23:24:47.929Z,5.20
2018-12-27T23:27:19.823Z,5.25
2018-12-27T23:29:55.025Z,5.25
2018-12-27T23:32:28.201Z,5.25
2018-12-27T23:35:00.148Z,5.25
2018-12-27T23:37:32.177Z,5.25
2018-12-27T23:40:04.947Z,5.26
2018-12-27T23:42:37.699Z,5.25
2018-12-27T23:45:10.176Z,5.30
2018-12-27T23:47:42.996Z,5.29
2018-12-27T23:50:14.725Z,5.29
2018-12-27T23:52:46.960Z,5.30
2018-12-27T23:55:18.868Z,5.30
2018-12-27T23:57:52.082Z,5.32
